createdAt,value
2018-09-20T00:01:52.572Z,63.73
2018-09-20T00:05:56.487Z,64.28
2018-09-20T00:10:00.165Z,64.56
2018-09-20T00:14:03.682Z,63.96
2018-09-20T00:18:07.610Z,63.94
2018-09-20T00:22:11.151Z,63.94
2018-09-20T00:26:14.782Z,63.96
2018-09-20T00:30:18.683Z,63.96
2018-09-20T00:34:22.408Z,64.83
2018-09-20T00:38:26.256Z,63.85
2018-09-20T00:42:29.873Z,64.67
2018-09-20T00:46:33.517Z,64.79
2018-09-20T00:50:37.130Z,64.24
2018-09-20T00:54:40.709Z,64.61
2018-09-20T00:58:44.316Z,64.57
2018-09-20T01:02:48.163Z,65.31
2018-09-20T01:06:51.775Z,64.95
2018-09-20T01:10:55.426Z,65.11
2018-09-20T01:15:00.116Z,65.03
2018-09-20T01:19:03.746Z,65.34
2018-09-20T01:23:07.587Z,66.02
2018-09-20T01:27:11.215Z,65.83
2018-09-20T01:31:14.937Z,65.39
2018-09-20T01:35:18.614Z,65.29
2018-09-20T01:39:22.286Z,65.97
2018-09-20T01:43:25.837Z,66.18
2018-09-20T01:47:29.471Z,66.20
2018-09-20T01:51:33.018Z,66.02
2018-09-20T01:55:37.767Z,66.68
2018-09-20T01:59:41.330Z,66.26
2018-09-20T02:03:46.107Z,66.58
2018-09-20T02:07:49.615Z,66.13
2018-09-20T02:11:53.333Z,66.29
2018-09-20T02:15:56.909Z,66.82
2018-09-20T02:20:00.579Z,66.67
2018-09-20T02:24:04.173Z,66.35
2018-09-20T02:28:07.849Z,66.87
2018-09-20T02:32:11.545Z,66.80
2018-09-20T02:36:16.226Z,66.89
2018-09-20T02:40:19.702Z,67.28
2018-09-20T02:44:25.498Z,67.43
2018-09-20T02:48:29.371Z,67.39
2018-09-20T02:52:33.008Z,67.32
2018-09-20T02:56:37.051Z,67.71
2018-09-20T03:00:40.719Z,67.33
2018-09-20T03:04:44.486Z,67.57
2018-09-20T03:08:48.505Z,67.30
2018-09-20T03:12:51.987Z,67.75
2018-09-20T03:16:57.746Z,68.11
2018-09-20T03:21:01.699Z,67.60
2018-09-20T03:25:05.386Z,68.30
2018-09-20T03:29:08.948Z,67.72
2018-09-20T03:33:12.633Z,67.93
2018-09-20T03:37:16.487Z,67.67
2018-09-20T03:41:21.369Z,68.32
2018-09-20T03:45:25.164Z,68.72
2018-09-20T03:49:29.033Z,68.12
2018-09-20T03:53:32.580Z,69.00
2018-09-20T03:57:36.613Z,68.92
2018-09-20T04:01:40.226Z,69.17
2018-09-20T04:05:44.012Z,68.85
2018-09-20T04:09:47.648Z,68.82
2018-09-20T04:13:51.447Z,68.70
2018-09-20T04:17:54.934Z,68.46
2018-09-20T04:21:58.509Z,69.10
2018-09-20T04:26:02.158Z,68.89
2018-09-20T04:30:06.092Z,68.85
2018-09-20T04:34:09.582Z,68.99
2018-09-20T04:38:13.626Z,68.48
2018-09-20T04:42:17.194Z,69.03
2018-09-20T04:46:20.841Z,69.00
2018-09-20T04:50:24.664Z,69.16
2018-09-20T04:54:28.314Z,69.14
2018-09-20T04:58:32.195Z,68.95
2018-09-20T05:02:36.090Z,69.11
2018-09-20T05:06:39.559Z,69.27
2018-09-20T05:10:43.271Z,69.52
2018-09-20T05:14:46.743Z,69.51
2018-09-20T05:18:50.529Z,70.10
2018-09-20T05:22:54.410Z,69.65
2018-09-20T05:26:57.962Z,69.76
2018-09-20T05:31:01.654Z,70.07
2018-09-20T05:35:05.312Z,70.17
2018-09-20T05:39:09.976Z,69.75
2018-09-20T05:43:13.526Z,70.33
2018-09-20T05:47:17.537Z,70.37
2018-09-20T05:51:21.227Z,70.27
2018-09-20T05:55:24.743Z,70.76
2018-09-20T05:59:28.383Z,70.91
2018-09-20T06:03:32.033Z,70.95
2018-09-20T06:07:35.697Z,70.79
2018-09-20T06:11:39.308Z,70.21
2018-09-20T06:15:43.017Z,70.36
2018-09-20T06:19:46.604Z,70.96
2018-09-20T06:23:51.254Z,70.96
2018-09-20T06:27:54.910Z,70.63
2018-09-20T06:31:58.553Z,70.54
2018-09-20T06:36:03.981Z,70.96
2018-09-20T06:40:07.541Z,70.17
2018-09-20T06:44:11.153Z,70.64
2018-09-20T06:48:14.837Z,70.17
2018-09-20T06:52:18.403Z,70.47
2018-09-20T06:56:22.544Z,70.60
2018-09-20T07:00:26.185Z,70.54
2018-09-20T07:04:29.886Z,69.71
2018-09-20T07:08:33.476Z,69.81
2018-09-20T07:12:37.094Z,70.42
2018-09-20T07:16:40.730Z,69.41
2018-09-20T07:20:44.583Z,68.97
2018-09-20T07:24:48.128Z,68.81
2018-09-20T07:28:51.650Z,68.90
2018-09-20T07:32:55.373Z,68.33
2018-09-20T07:36:59.004Z,68.02
2018-09-20T07:41:02.443Z,67.94
2018-09-20T07:45:06.088Z,67.83
2018-09-20T07:49:09.630Z,67.41
2018-09-20T07:53:13.320Z,67.35
2018-09-20T07:57:16.938Z,66.60
2018-09-20T08:01:20.440Z,66.80
2018-09-20T08:05:23.903Z,65.56
2018-09-20T08:09:27.518Z,65.51
2018-09-20T08:13:31.124Z,65.05
2018-09-20T08:17:34.790Z,64.84
2018-09-20T08:21:38.546Z,65.07
2018-09-20T08:25:42.162Z,64.93
2018-09-20T08:29:45.675Z,63.80
2018-09-20T08:33:49.415Z,64.22
2018-09-20T08:37:53.079Z,62.93
2018-09-20T08:41:56.514Z,63.65
2018-09-20T08:46:00.174Z,63.08
2018-09-20T08:50:03.975Z,63.05
2018-09-20T08:54:07.623Z,62.03
2018-09-20T08:58:11.202Z,62.42
2018-09-20T09:02:14.918Z,61.58
2018-09-20T09:06:18.635Z,61.55
2018-09-20T09:10:22.058Z,60.25
2018-09-20T09:14:25.691Z,60.42
2018-09-20T09:18:29.226Z,60.42
2018-09-20T09:22:32.930Z,60.55
2018-09-20T09:26:36.664Z,60.07
2018-09-20T09:30:40.285Z,60.17
2018-09-20T09:34:43.853Z,60.89
2018-09-20T09:38:47.490Z,59.72
2018-09-20T09:42:51.059Z,59.78
2018-09-20T09:46:54.679Z,58.92
2018-09-20T09:50:58.193Z,58.85
2018-09-20T09:55:01.931Z,57.92
2018-09-20T09:59:05.728Z,58.35
2018-09-20T10:03:09.593Z,59.00
2018-09-20T10:07:13.088Z,58.31
2018-09-20T10:11:16.925Z,58.01
2018-09-20T10:15:20.423Z,55.46
2018-09-20T10:19:24.067Z,57.20
2018-09-20T10:23:27.549Z,56.95
2018-09-20T10:27:31.136Z,56.51
2018-09-20T10:31:35.089Z,55.39
2018-09-20T10:35:38.742Z,55.21
2018-09-20T10:39:42.420Z,54.91
2018-09-20T10:43:46.570Z,54.64
2018-09-20T10:47:50.026Z,54.57
2018-09-20T10:51:54.018Z,54.48
2018-09-20T10:55:57.590Z,53.88
2018-09-20T11:00:01.178Z,53.23
2018-09-20T11:04:04.822Z,53.01
2018-09-20T11:08:08.273Z,52.17
2018-09-20T11:12:11.994Z,52.96
2018-09-20T11:16:16.710Z,52.00
2018-09-20T11:20:20.320Z,52.66
2018-09-20T11:24:24.039Z,52.76
2018-09-20T11:28:27.614Z,52.19
2018-09-20T11:32:31.262Z,52.15
2018-09-20T11:36:34.765Z,51.63
2018-09-20T11:40:38.325Z,51.74
2018-09-20T11:44:41.851Z,51.53
2018-09-20T11:48:45.393Z,51.24
2018-09-20T11:52:48.950Z,50.94
2018-09-20T11:56:52.564Z,49.72
2018-09-20T12:00:56.114Z,49.95
2018-09-20T12:04:59.803Z,49.30
2018-09-20T12:09:04.162Z,49.96
2018-09-20T12:13:07.723Z,48.93
2018-09-20T12:17:12.493Z,48.58
2018-09-20T12:21:16.481Z,48.83
2018-09-20T12:25:20.020Z,47.67
2018-09-20T12:29:24.011Z,48.30
2018-09-20T12:33:27.809Z,47.28
2018-09-20T12:37:38.842Z,47.52
2018-09-20T12:41:42.903Z,47.29
2018-09-20T12:45:47.091Z,47.81
2018-09-20T12:49:50.537Z,48.73
2018-09-20T12:53:54.274Z,47.93
2018-09-20T12:57:57.741Z,47.88
2018-09-20T13:02:02.634Z,49.22
2018-09-20T13:06:06.185Z,48.21
2018-09-20T13:10:09.841Z,48.61
2018-09-20T13:14:13.254Z,48.06
2018-09-20T13:18:16.942Z,45.44
2018-09-20T13:22:20.674Z,46.82
2018-09-20T13:26:24.498Z,47.00
2018-09-20T13:30:27.998Z,46.91
2018-09-20T13:34:31.822Z,47.18
2018-09-20T13:38:35.518Z,46.31
2018-09-20T13:42:39.140Z,46.54
2018-09-20T13:46:42.742Z,46.72
2018-09-20T13:50:46.340Z,46.67
2018-09-20T13:54:49.843Z,46.51
2018-09-20T13:58:53.462Z,46.15
2018-09-20T14:02:57.075Z,46.34
2018-09-20T14:07:00.766Z,45.80
2018-09-20T14:11:04.258Z,45.95
2018-09-20T14:15:08.276Z,46.59
2018-09-20T14:19:11.767Z,46.21
2018-09-20T14:23:15.571Z,45.92
2018-09-20T14:27:19.118Z,47.13
2018-09-20T14:31:23.416Z,47.19
2018-09-20T14:35:26.919Z,47.42
2018-09-20T14:39:30.557Z,46.60
2018-09-20T14:43:34.247Z,46.86
2018-09-20T14:47:38.939Z,46.26
2018-09-20T14:51:42.511Z,46.50
2018-09-20T14:55:46.141Z,46.10
2018-09-20T14:59:49.650Z,46.46
2018-09-20T15:03:53.339Z,45.68
2018-09-20T15:07:56.890Z,45.80
2018-09-20T15:12:00.446Z,45.94
2018-09-20T15:16:04.091Z,46.77
2018-09-20T15:20:07.913Z,46.79
2018-09-20T15:24:11.492Z,46.88
2018-09-20T15:28:15.389Z,46.33
2018-09-20T15:32:19.095Z,46.84
2018-09-20T15:36:22.983Z,46.12
2018-09-20T15:40:26.577Z,46.11
2018-09-20T15:44:30.265Z,46.21
2018-09-20T15:48:34.114Z,45.78
2018-09-20T15:52:38.059Z,45.72
2018-09-20T15:56:41.602Z,46.84
2018-09-20T16:00:45.242Z,46.79
2018-09-20T16:04:48.902Z,46.28
2018-09-20T16:08:52.394Z,46.91
2018-09-20T16:12:55.878Z,47.17
2018-09-20T16:17:00.613Z,46.64
2018-09-20T16:21:04.110Z,48.06
2018-09-20T16:25:07.939Z,48.60
2018-09-20T16:30:27.005Z,48.91
2018-09-20T16:34:49.131Z,49.22
2018-09-20T16:38:58.251Z,49.63
2018-09-20T16:43:01.916Z,50.00
2018-09-20T16:47:06.009Z,49.44
2018-09-20T16:51:10.840Z,50.59
2018-09-20T16:55:14.567Z,50.49
2018-09-20T16:59:18.166Z,50.38
2018-09-20T17:03:21.915Z,51.14
2018-09-20T17:07:25.455Z,50.49
2018-09-20T17:11:29.068Z,50.49
2018-09-20T17:15:32.744Z,51.38
2018-09-20T17:19:36.241Z,50.57
2018-09-20T17:23:40.361Z,51.67
2018-09-20T17:27:43.798Z,51.32
2018-09-20T17:31:48.411Z,51.85
2018-09-20T17:35:52.560Z,51.32
2018-09-20T17:39:57.973Z,52.31
2018-09-20T17:44:03.771Z,51.72
2018-09-20T17:48:07.267Z,52.46
2018-09-20T17:52:11.529Z,52.89
2018-09-20T17:56:16.159Z,52.02
2018-09-20T18:00:22.395Z,52.83
2018-09-20T18:04:25.939Z,52.41
2018-09-20T18:08:29.509Z,53.28
2018-09-20T18:12:33.082Z,52.92
2018-09-20T18:16:36.569Z,53.25
2018-09-20T18:20:40.049Z,53.82
2018-09-20T18:24:43.557Z,52.98
2018-09-20T18:28:47.216Z,53.28
2018-09-20T18:32:51.057Z,53.88
2018-09-20T18:36:54.542Z,54.12
2018-09-20T18:40:58.119Z,53.69
2018-09-20T18:45:01.632Z,54.08
2018-09-20T18:49:05.217Z,54.48
2018-09-20T18:53:08.719Z,54.33
2018-09-20T18:57:12.160Z,54.95
2018-09-20T19:01:15.747Z,54.47
2018-09-20T19:05:19.247Z,54.85
2018-09-20T19:10:15.465Z,55.87
2018-09-20T19:14:19.097Z,55.56
2018-09-20T19:18:22.579Z,56.24
2018-09-20T19:22:26.214Z,55.99
2018-09-20T19:26:29.734Z,56.30
2018-09-20T19:30:33.326Z,56.99
2018-09-20T19:34:36.895Z,56.58
2018-09-20T19:38:40.646Z,57.48
2018-09-20T19:42:44.017Z,57.66
2018-09-20T19:46:48.683Z,57.56
2018-09-20T19:50:52.265Z,57.17
2018-09-20T19:54:55.705Z,58.01
2018-09-20T19:58:59.190Z,57.70
2018-09-20T20:03:02.934Z,58.10
2018-09-20T20:07:06.470Z,58.34
2018-09-20T20:11:10.022Z,58.02
2018-09-20T20:15:13.525Z,57.93
2018-09-20T20:19:17.050Z,57.90
2018-09-20T20:23:20.574Z,58.60
2018-09-20T20:27:23.989Z,59.08
2018-09-20T20:31:27.736Z,58.73
2018-09-20T20:35:31.210Z,59.48
2018-09-20T20:39:34.766Z,59.60
2018-09-20T20:43:38.386Z,59.58
2018-09-20T20:47:44.118Z,59.54
2018-09-20T20:51:48.594Z,59.81
2018-09-20T20:55:52.326Z,59.55
2018-09-20T20:59:55.765Z,59.93
2018-09-20T21:03:59.454Z,60.33
2018-09-20T21:08:02.989Z,60.50
2018-09-20T21:12:06.489Z,59.83
2018-09-20T21:16:10.056Z,60.50
2018-09-20T21:20:13.570Z,60.41
2018-09-20T21:24:17.075Z,59.87
2018-09-20T21:28:20.554Z,60.79
2018-09-20T21:32:24.210Z,60.45
2018-09-20T21:36:28.954Z,61.53
2018-09-20T21:40:32.438Z,60.92
2018-09-20T21:44:35.944Z,61.18
2018-09-20T21:48:39.425Z,61.85
2018-09-20T21:52:43.169Z,62.31
2018-09-20T21:56:46.592Z,61.79
2018-09-20T22:00:53.234Z,62.27
2018-09-20T22:04:56.677Z,61.49
2018-09-20T22:09:01.342Z,61.54
2018-09-20T22:13:05.254Z,61.89
2018-09-20T22:17:09.208Z,61.87
2018-09-20T22:21:12.726Z,62.88
2018-09-20T22:25:16.534Z,62.77
2018-09-20T22:29:20.035Z,63.25
2018-09-20T22:33:23.521Z,63.50
2018-09-20T22:37:27.015Z,63.46
2018-09-20T22:41:30.659Z,63.38
2018-09-20T22:45:34.286Z,64.33
2018-09-20T22:49:37.753Z,63.67
2018-09-20T22:53:41.330Z,63.99
2018-09-20T22:57:45.898Z,64.20
2018-09-20T23:01:49.497Z,63.71
2018-09-20T23:05:53.103Z,64.25
2018-09-20T23:09:56.571Z,64.14
2018-09-20T23:14:00.142Z,64.04
2018-09-20T23:18:03.706Z,64.84
2018-09-20T23:22:07.170Z,64.55
2018-09-20T23:26:10.710Z,65.12
2018-09-20T23:30:14.234Z,64.71
2018-09-20T23:34:17.685Z,64.80
2018-09-20T23:42:23.687Z,65.76
2018-09-20T23:46:27.256Z,65.94
2018-09-20T23:50:30.901Z,65.44
2018-09-20T23:54:34.422Z,66.34
2018-09-20T23:58:37.891Z,65.94
